Chiricana — 3EKU3 — position and weather

sailwx.info

Track history (hours):
 
Tides and Currents Weather Stations Pressure Air Temp Water Temp Dewpoint Dewpoint Depression Visibility Wind Speed Wind Dir Waves Ship Positions

Chiricana

Last reported at 2017-Feb-18 14:13 UTC. Time now 2017-Feb-26 06:06 UTC.
Position N 30°29' E 122°18'.

Length 300 m; draft 9 m.

Type: Ship (hazmat cat A). MMSI: 372829000.

Date/timePositionNaut miles runAvg speedWind from/ knotsBaromVisibWave heightAir tempDewpointWater temp
2017-Feb-18 14:13N 30°29' E 122°18'1 0.9
2017-Feb-18 13:23N 30°29' E 122°19'0 0.0
2017-Feb-16 18:26N 30°29' E 122°18'0 0.0
2017-Feb-16 17:26N 30°29' E 122°18'0 0.0
2017-Feb-16 11:29N 30°29' E 122°19'  
2017-Feb-12 13:24N 22°20' E 114°08'319 8.6
2017-Feb-11 00:13N 22°32' E 119°52'1117.3
2017-Feb-10 23:33N 22°33' E 120°04'1413.7
2017-Feb-10 22:33N 22°33' E 120°19'1 0.0
2017-Feb-09 17:29N 22°33' E 120°20'4 4.2
2017-Feb-09 16:33N 22°32' E 120°16'2 1.7
2017-Feb-09 15:33N 22°32' E 120°14'7 7.0
2017-Feb-09 14:33N 22°28' E 120°08'2 1.6
2017-Feb-09 13:32N 22°30' E 120°08'7 7.2
2017-Feb-09 12:33N 22°29' E 120°01'7 6.8
2017-Feb-09 11:33N 22°26' E 119°54'3 3.0
2017-Feb-09 10:33N 22°28' E 119°57'3 3.1
2017-Feb-09 09:33N 22°31' E 119°59'3 3.2
2017-Feb-09 08:33N 22°33' E 120°00'3 3.2
2017-Feb-09 07:33N 22°36' E 120°02'3 3.3
2017-Feb-09 06:34N 22°40' E 120°02'1413.9
2017-Feb-09 05:33N 22°53' E 119°58'  
Track history (hours):
 
Tides and Currents Weather Stations Pressure Air Temp Water Temp Dewpoint Dewpoint Depression Visibility Wind Speed Wind Dir Waves Ship Positions

Chiricana

Last reported at 2017-Feb-18 14:13 UTC. Time now 2017-Feb-26 06:06 UTC.
Position N 30°29' E 122°18'.

Length 300 m; draft 9 m.

Type: Ship (hazmat cat A). MMSI: 372829000.

Date/timePositionNaut miles runAvg speedWind from/ knotsBaromVisibWave heightAir tempDewpointWater temp
2017-Feb-18 14:13N 30°29' E 122°18'1 0.9
2017-Feb-18 13:23N 30°29' E 122°19'0 0.0
2017-Feb-16 18:26N 30°29' E 122°18'0 0.0
2017-Feb-16 17:26N 30°29' E 122°18'0 0.0
2017-Feb-16 11:29N 30°29' E 122°19'  
2017-Feb-12 13:24N 22°20' E 114°08'319 8.6
2017-Feb-11 00:13N 22°32' E 119°52'1117.3
2017-Feb-10 23:33N 22°33' E 120°04'1413.7
2017-Feb-10 22:33N 22°33' E 120°19'1 0.0
2017-Feb-09 17:29N 22°33' E 120°20'4 4.2
2017-Feb-09 16:33N 22°32' E 120°16'2 1.7
2017-Feb-09 15:33N 22°32' E 120°14'7 7.0
2017-Feb-09 14:33N 22°28' E 120°08'2 1.6
2017-Feb-09 13:32N 22°30' E 120°08'7 7.2
2017-Feb-09 12:33N 22°29' E 120°01'7 6.8
2017-Feb-09 11:33N 22°26' E 119°54'3 3.0
2017-Feb-09 10:33N 22°28' E 119°57'3 3.1
2017-Feb-09 09:33N 22°31' E 119°59'3 3.2
2017-Feb-09 08:33N 22°33' E 120°00'3 3.2
2017-Feb-09 07:33N 22°36' E 120°02'3 3.3
2017-Feb-09 06:34N 22°40' E 120°02'1413.9
2017-Feb-09 05:33N 22°53' E 119°58'  

Dump ship's entire track history